sensor_id;sensor_type;location;lat;lon;timestamp;P1;durP1;ratioP1;P2;durP2;ratioP2
44036;SDS011;62488;-37.670;-63.532;2022-10-31T00:01:23;4.82;;;1.75;;
44036;SDS011;62488;-37.670;-63.532;2022-10-31T00:03:55;7.85;;;1.65;;
44036;SDS011;62488;-37.670;-63.532;2022-10-31T00:06:22;3.72;;;1.45;;
44036;SDS011;62488;-37.670;-63.532;2022-10-31T00:08:54;10.35;;;1.75;;
44036;SDS011;62488;-37.670;-63.532;2022-10-31T00:11:22;5.68;;;1.42;;
44036;SDS011;62488;-37.670;-63.532;2022-10-31T00:13:49;7.72;;;1.90;;
44036;SDS011;62488;-37.670;-63.532;2022-10-31T00:16:20;16.42;;;1.70;;
44036;SDS011;62488;-37.670;-63.532;2022-10-31T00:18:51;4.43;;;1.85;;
44036;SDS011;62488;-37.670;-63.532;2022-10-31T00:21:21;7.18;;;1.75;;
44036;SDS011;62488;-37.670;-63.532;2022-10-31T00:23:49;4.82;;;1.75;;
44036;SDS011;62488;-37.670;-63.532;2022-10-31T00:26:16;12.07;;;2.67;;
44036;SDS011;62488;-37.670;-63.532;2022-10-31T00:28:44;4.30;;;1.63;;
44036;SDS011;62488;-37.670;-63.532;2022-10-31T00:31:12;12.55;;;1.75;;
44036;SDS011;62488;-37.670;-63.532;2022-10-31T00:33:39;7.97;;;2.15;;
44036;SDS011;62488;-37.670;-63.532;2022-10-31T00:36:08;9.00;;;2.45;;
44036;SDS011;62488;-37.670;-63.532;2022-10-31T00:38:38;3.53;;;1.30;;
44036;SDS011;62488;-37.670;-63.532;2022-10-31T00:41:06;6.63;;;2.22;;
44036;SDS011;62488;-37.670;-63.532;2022-10-31T00:43:33;10.65;;;2.03;;
44036;SDS011;62488;-37.670;-63.532;2022-10-31T00:46:00;7.22;;;2.90;;
44036;SDS011;62488;-37.670;-63.532;2022-10-31T00:48:27;7.05;;;2.70;;
44036;SDS011;62488;-37.670;-63.532;2022-10-31T00:50:56;2.47;;;1.40;;
44036;SDS011;62488;-37.670;-63.532;2022-10-31T00:53:23;4.07;;;2.60;;
44036;SDS011;62488;-37.670;-63.532;2022-10-31T00:55:50;6.82;;;2.78;;
44036;SDS011;62488;-37.670;-63.532;2022-10-31T00:58:17;6.15;;;2.70;;
44036;SDS011;62488;-37.670;-63.532;2022-10-31T01:00:46;9.93;;;3.03;;
44036;SDS011;62488;-37.670;-63.532;2022-10-31T01:03:21;9.57;;;2.55;;
44036;SDS011;62488;-37.670;-63.532;2022-10-31T01:05:59;7.82;;;3.15;;
44036;SDS011;62488;-37.670;-63.532;2022-10-31T01:08:32;10.90;;;2.42;;
44036;SDS011;62488;-37.670;-63.532;2022-10-31T01:11:21;8.85;;;2.40;;
44036;SDS011;62488;-37.670;-63.532;2022-10-31T01:13:51;6.65;;;2.67;;
44036;SDS011;62488;-37.670;-63.532;2022-10-31T01:16:20;7.82;;;1.90;;
44036;SDS011;62488;-37.670;-63.532;2022-10-31T01:18:48;5.95;;;2.08;;
44036;SDS011;62488;-37.670;-63.532;2022-10-31T01:21:20;8.75;;;1.80;;
44036;SDS011;62488;-37.670;-63.532;2022-10-31T01:23:52;4.55;;;1.60;;
44036;SDS011;62488;-37.670;-63.532;2022-10-31T01:26:21;5.45;;;2.17;;
44036;SDS011;62488;-37.670;-63.532;2022-10-31T01:28:50;5.30;;;1.60;;
44036;SDS011;62488;-37.670;-63.532;2022-10-31T01:31:22;4.68;;;1.65;;
44036;SDS011;62488;-37.670;-63.532;2022-10-31T01:33:51;7.78;;;1.55;;
44036;SDS011;62488;-37.670;-63.532;2022-10-31T01:36:22;7.07;;;1.90;;
44036;SDS011;62488;-37.670;-63.532;2022-10-31T01:41:20;4.45;;;1.67;;
44036;SDS011;62488;-37.670;-63.532;2022-10-31T01:43:59;9.68;;;1.85;;
44036;SDS011;62488;-37.670;-63.532;2022-10-31T01:46:38;6.97;;;1.90;;
44036;SDS011;62488;-37.670;-63.532;2022-10-31T01:49:11;5.50;;;1.80;;
44036;SDS011;62488;-37.670;-63.532;2022-10-31T01:52:01;5.45;;;1.77;;
44036;SDS011;62488;-37.670;-63.532;2022-10-31T01:54:33;5.40;;;1.95;;
44036;SDS011;62488;-37.670;-63.532;2022-10-31T01:57:07;6.30;;;1.58;;
44036;SDS011;62488;-37.670;-63.532;2022-10-31T01:59:40;6.53;;;1.73;;
44036;SDS011;62488;-37.670;-63.532;2022-10-31T02:02:12;6.28;;;1.55;;
44036;SDS011;62488;-37.670;-63.532;2022-10-31T02:04:40;6.95;;;2.20;;
44036;SDS011;62488;-37.670;-63.532;2022-10-31T02:07:18;5.68;;;2.10;;
44036;SDS011;62488;-37.670;-63.532;2022-10-31T02:09:52;10.00;;;2.78;;
44036;SDS011;62488;-37.670;-63.532;2022-10-31T02:12:21;10.27;;;3.33;;
44036;SDS011;62488;-37.670;-63.532;2022-10-31T02:14:49;7.68;;;3.40;;
44036;SDS011;62488;-37.670;-63.532;2022-10-31T02:17:16;9.52;;;2.60;;
44036;SDS011;62488;-37.670;-63.532;2022-10-31T02:33:52;6.60;;;1.77;;
44036;SDS011;62488;-37.670;-63.532;2022-10-31T02:46:55;6.57;;;1.88;;
44036;SDS011;62488;-37.670;-63.532;2022-10-31T02:49:29;6.50;;;1.92;;
44036;SDS011;62488;-37.670;-63.532;2022-10-31T02:52:02;11.48;;;2.25;;
44036;SDS011;62488;-37.670;-63.532;2022-10-31T02:54:45;7.30;;;2.60;;
44036;SDS011;62488;-37.670;-63.532;2022-10-31T02:57:13;8.75;;;1.90;;
44036;SDS011;62488;-37.670;-63.532;2022-10-31T02:59:45;9.20;;;2.50;;
44036;SDS011;62488;-37.670;-63.532;2022-10-31T03:05:38;8.48;;;2.45;;
44036;SDS011;62488;-37.670;-63.532;2022-10-31T03:08:57;12.98;;;2.55;;
44036;SDS011;62488;-37.670;-63.532;2022-10-31T03:11:05;9.07;;;2.53;;
44036;SDS011;62488;-37.670;-63.532;2022-10-31T03:13:47;5.60;;;1.60;;
44036;SDS011;62488;-37.670;-63.532;2022-10-31T03:16:56;5.95;;;1.98;;
44036;SDS011;62488;-37.670;-63.532;2022-10-31T03:22:17;12.87;;;2.37;;
44036;SDS011;62488;-37.670;-63.532;2022-10-31T03:24:48;6.30;;;2.25;;
44036;SDS011;62488;-37.670;-63.532;2022-10-31T03:27:23;10.43;;;3.20;;
44036;SDS011;62488;-37.670;-63.532;2022-10-31T03:29:53;12.32;;;4.88;;
44036;SDS011;62488;-37.670;-63.532;2022-10-31T03:32:27;10.05;;;4.20;;
44036;SDS011;62488;-37.670;-63.532;2022-10-31T03:35:06;7.07;;;2.63;;
44036;SDS011;62488;-37.670;-63.532;2022-10-31T03:37:36;12.68;;;3.55;;
44036;SDS011;62488;-37.670;-63.532;2022-10-31T03:40:05;16.15;;;3.85;;
44036;SDS011;62488;-37.670;-63.532;2022-10-31T03:42:34;6.57;;;2.50;;
44036;SDS011;62488;-37.670;-63.532;2022-10-31T03:47:37;7.57;;;2.28;;
44036;SDS011;62488;-37.670;-63.532;2022-10-31T03:50:06;12.38;;;3.60;;
44036;SDS011;62488;-37.670;-63.532;2022-10-31T03:52:36;6.97;;;2.35;;
44036;SDS011;62488;-37.670;-63.532;2022-10-31T03:55:10;9.63;;;2.95;;
44036;SDS011;62488;-37.670;-63.532;2022-10-31T03:58:02;8.27;;;2.45;;
44036;SDS011;62488;-37.670;-63.532;2022-10-31T04:00:35;8.45;;;2.75;;
44036;SDS011;62488;-37.670;-63.532;2022-10-31T04:03:10;10.05;;;2.35;;
44036;SDS011;62488;-37.670;-63.532;2022-10-31T04:05:43;5.80;;;2.78;;
44036;SDS011;62488;-37.670;-63.532;2022-10-31T04:10:43;6.72;;;2.92;;
44036;SDS011;62488;-37.670;-63.532;2022-10-31T04:13:14;9.50;;;2.30;;
44036;SDS011;62488;-37.670;-63.532;2022-10-31T04:15:45;8.90;;;2.75;;
44036;SDS011;62488;-37.670;-63.532;2022-10-31T04:18:13;5.63;;;2.47;;
44036;SDS011;62488;-37.670;-63.532;2022-10-31T04:20:41;7.63;;;2.60;;
44036;SDS011;62488;-37.670;-63.532;2022-10-31T04:25:45;4.95;;;2.25;;
44036;SDS011;62488;-37.670;-63.532;2022-10-31T04:28:12;13.20;;;2.30;;
44036;SDS011;62488;-37.670;-63.532;2022-10-31T04:30:39;6.65;;;2.17;;
44036;SDS011;62488;-37.670;-63.532;2022-10-31T04:33:06;12.13;;;2.63;;
44036;SDS011;62488;-37.670;-63.532;2022-10-31T04:35:33;8.98;;;2.83;;
44036;SDS011;62488;-37.670;-63.532;2022-10-31T04:38:00;10.85;;;2.90;;
44036;SDS011;62488;-37.670;-63.532;2022-10-31T04:40:27;9.60;;;2.25;;
44036;SDS011;62488;-37.670;-63.532;2022-10-31T04:42:54;6.93;;;2.50;;
44036;SDS011;62488;-37.670;-63.532;2022-10-31T04:45:21;6.10;;;2.67;;
44036;SDS011;62488;-37.670;-63.532;2022-10-31T04:47:48;7.78;;;3.13;;
44036;SDS011;62488;-37.670;-63.532;2022-10-31T04:50:15;5.38;;;2.40;;
44036;SDS011;62488;-37.670;-63.532;2022-10-31T04:52:43;11.98;;;3.30;;
44036;SDS011;62488;-37.670;-63.532;2022-10-31T04:55:11;16.23;;;3.67;;
44036;SDS011;62488;-37.670;-63.532;2022-10-31T04:57:44;8.38;;;2.85;;
44036;SDS011;62488;-37.670;-63.532;2022-10-31T05:00:17;6.20;;;2.72;;
44036;SDS011;62488;-37.670;-63.532;2022-10-31T05:02:50;8.02;;;2.10;;
44036;SDS011;62488;-37.670;-63.532;2022-10-31T05:05:20;8.23;;;2.15;;
44036;SDS011;62488;-37.670;-63.532;2022-10-31T05:07:49;9.68;;;2.58;;
44036;SDS011;62488;-37.670;-63.532;2022-10-31T05:10:19;5.15;;;2.25;;
44036;SDS011;62488;-37.670;-63.532;2022-10-31T05:12:48;9.27;;;2.53;;
44036;SDS011;62488;-37.670;-63.532;2022-10-31T05:15:17;14.98;;;3.60;;
44036;SDS011;62488;-37.670;-63.532;2022-10-31T05:17:45;10.57;;;3.55;;
44036;SDS011;62488;-37.670;-63.532;2022-10-31T05:20:14;5.95;;;2.55;;
44036;SDS011;62488;-37.670;-63.532;2022-10-31T05:22:46;7.57;;;2.95;;
44036;SDS011;62488;-37.670;-63.532;2022-10-31T05:25:15;9.25;;;2.53;;
44036;SDS011;62488;-37.670;-63.532;2022-10-31T05:27:44;6.80;;;1.98;;
44036;SDS011;62488;-37.670;-63.532;2022-10-31T05:30:13;8.35;;;2.55;;
44036;SDS011;62488;-37.670;-63.532;2022-10-31T05:35:12;12.05;;;3.60;;
44036;SDS011;62488;-37.670;-63.532;2022-10-31T05:37:40;12.18;;;4.10;;
44036;SDS011;62488;-37.670;-63.532;2022-10-31T05:40:08;8.63;;;3.60;;
44036;SDS011;62488;-37.670;-63.532;2022-10-31T05:42:40;12.77;;;3.45;;
44036;SDS011;62488;-37.670;-63.532;2022-10-31T05:45:15;11.85;;;3.78;;
44036;SDS011;62488;-37.670;-63.532;2022-10-31T05:47:55;5.72;;;2.25;;
44036;SDS011;62488;-37.670;-63.532;2022-10-31T05:50:27;12.63;;;2.88;;
44036;SDS011;62488;-37.670;-63.532;2022-10-31T05:52:59;4.95;;;1.95;;
44036;SDS011;62488;-37.670;-63.532;2022-10-31T05:55:28;7.30;;;2.25;;
44036;SDS011;62488;-37.670;-63.532;2022-10-31T05:57:56;12.10;;;2.97;;
44036;SDS011;62488;-37.670;-63.532;2022-10-31T06:00:24;9.10;;;2.13;;
44036;SDS011;62488;-37.670;-63.532;2022-10-31T06:02:58;7.63;;;2.33;;
44036;SDS011;62488;-37.670;-63.532;2022-10-31T06:05:26;9.00;;;2.85;;
44036;SDS011;62488;-37.670;-63.532;2022-10-31T06:07:54;6.22;;;2.22;;
44036;SDS011;62488;-37.670;-63.532;2022-10-31T06:10:21;8.70;;;2.03;;
44036;SDS011;62488;-37.670;-63.532;2022-10-31T06:12:48;5.70;;;2.40;;
44036;SDS011;62488;-37.670;-63.532;2022-10-31T06:15:16;12.05;;;2.22;;
44036;SDS011;62488;-37.670;-63.532;2022-10-31T06:17:43;9.80;;;2.47;;
44036;SDS011;62488;-37.670;-63.532;2022-10-31T06:20:10;11.27;;;2.45;;
44036;SDS011;62488;-37.670;-63.532;2022-10-31T06:22:38;8.60;;;2.13;;
44036;SDS011;62488;-37.670;-63.532;2022-10-31T06:25:04;10.05;;;2.35;;
44036;SDS011;62488;-37.670;-63.532;2022-10-31T06:27:32;14.23;;;2.55;;
44036;SDS011;62488;-37.670;-63.532;2022-10-31T06:29:59;9.82;;;3.03;;
44036;SDS011;62488;-37.670;-63.532;2022-10-31T06:32:28;13.23;;;1.85;;
44036;SDS011;62488;-37.670;-63.532;2022-10-31T06:34:55;9.30;;;2.13;;
44036;SDS011;62488;-37.670;-63.532;2022-10-31T06:37:22;6.53;;;2.35;;
44036;SDS011;62488;-37.670;-63.532;2022-10-31T06:39:49;8.32;;;2.92;;
44036;SDS011;62488;-37.670;-63.532;2022-10-31T06:42:16;14.90;;;2.97;;
44036;SDS011;62488;-37.670;-63.532;2022-10-31T06:44:43;7.13;;;2.40;;
44036;SDS011;62488;-37.670;-63.532;2022-10-31T06:47:10;10.35;;;2.63;;
44036;SDS011;62488;-37.670;-63.532;2022-10-31T06:49:37;9.68;;;2.20;;
44036;SDS011;62488;-37.670;-63.532;2022-10-31T06:52:04;7.63;;;2.22;;
44036;SDS011;62488;-37.670;-63.532;2022-10-31T06:54:31;7.88;;;2.65;;
44036;SDS011;62488;-37.670;-63.532;2022-10-31T06:56:58;10.77;;;3.17;;
44036;SDS011;62488;-37.670;-63.532;2022-10-31T06:59:25;6.15;;;2.03;;
44036;SDS011;62488;-37.670;-63.532;2022-10-31T07:01:52;12.30;;;2.53;;
44036;SDS011;62488;-37.670;-63.532;2022-10-31T07:04:19;7.13;;;1.90;;
44036;SDS011;62488;-37.670;-63.532;2022-10-31T07:06:47;7.45;;;1.92;;
44036;SDS011;62488;-37.670;-63.532;2022-10-31T07:09:18;10.85;;;2.03;;
44036;SDS011;62488;-37.670;-63.532;2022-10-31T07:11:45;7.93;;;1.88;;
44036;SDS011;62488;-37.670;-63.532;2022-10-31T07:14:12;6.90;;;2.50;;
44036;SDS011;62488;-37.670;-63.532;2022-10-31T07:16:39;7.30;;;2.33;;
44036;SDS011;62488;-37.670;-63.532;2022-10-31T07:19:06;13.65;;;4.07;;
44036;SDS011;62488;-37.670;-63.532;2022-10-31T07:21:33;11.02;;;3.33;;
44036;SDS011;62488;-37.670;-63.532;2022-10-31T07:24:00;6.05;;;1.60;;
44036;SDS011;62488;-37.670;-63.532;2022-10-31T07:26:27;8.15;;;2.10;;
44036;SDS011;62488;-37.670;-63.532;2022-10-31T07:28:54;11.30;;;2.47;;
44036;SDS011;62488;-37.670;-63.532;2022-10-31T07:31:21;6.55;;;2.30;;
44036;SDS011;62488;-37.670;-63.532;2022-10-31T07:33:47;7.68;;;2.35;;
44036;SDS011;62488;-37.670;-63.532;2022-10-31T07:36:14;7.03;;;1.83;;
44036;SDS011;62488;-37.670;-63.532;2022-10-31T07:38:41;8.30;;;2.28;;
44036;SDS011;62488;-37.670;-63.532;2022-10-31T07:41:08;10.80;;;2.90;;
44036;SDS011;62488;-37.670;-63.532;2022-10-31T07:43:35;6.28;;;1.95;;
44036;SDS011;62488;-37.670;-63.532;2022-10-31T07:46:05;8.95;;;2.58;;
44036;SDS011;62488;-37.670;-63.532;2022-10-31T07:48:32;9.35;;;2.42;;
44036;SDS011;62488;-37.670;-63.532;2022-10-31T07:51:01;12.13;;;2.15;;
44036;SDS011;62488;-37.670;-63.532;2022-10-31T07:53:28;7.32;;;2.08;;
44036;SDS011;62488;-37.670;-63.532;2022-10-31T07:55:55;7.22;;;2.22;;
44036;SDS011;62488;-37.670;-63.532;2022-10-31T07:58:22;8.93;;;2.17;;
44036;SDS011;62488;-37.670;-63.532;2022-10-31T08:00:49;5.63;;;2.00;;
44036;SDS011;62488;-37.670;-63.532;2022-10-31T08:03:17;9.52;;;2.00;;
44036;SDS011;62488;-37.670;-63.532;2022-10-31T08:05:46;8.93;;;2.30;;
44036;SDS011;62488;-37.670;-63.532;2022-10-31T08:08:13;5.53;;;1.80;;
44036;SDS011;62488;-37.670;-63.532;2022-10-31T08:10:41;5.47;;;2.10;;
44036;SDS011;62488;-37.670;-63.532;2022-10-31T08:13:09;6.72;;;2.22;;
44036;SDS011;62488;-37.670;-63.532;2022-10-31T08:15:38;6.90;;;2.33;;
44036;SDS011;62488;-37.670;-63.532;2022-10-31T08:18:10;12.00;;;2.38;;
44036;SDS011;62488;-37.670;-63.532;2022-10-31T08:20:39;7.45;;;2.28;;
44036;SDS011;62488;-37.670;-63.532;2022-10-31T08:23:07;7.93;;;2.60;;
44036;SDS011;62488;-37.670;-63.532;2022-10-31T08:25:36;16.25;;;2.22;;
44036;SDS011;62488;-37.670;-63.532;2022-10-31T08:28:04;9.55;;;2.53;;
44036;SDS011;62488;-37.670;-63.532;2022-10-31T08:30:32;8.57;;;2.55;;
44036;SDS011;62488;-37.670;-63.532;2022-10-31T08:33:04;17.35;;;2.95;;
44036;SDS011;62488;-37.670;-63.532;2022-10-31T08:35:34;8.90;;;2.00;;
44036;SDS011;62488;-37.670;-63.532;2022-10-31T08:38:01;8.73;;;1.83;;
44036;SDS011;62488;-37.670;-63.532;2022-10-31T08:40:30;11.82;;;3.10;;
44036;SDS011;62488;-37.670;-63.532;2022-10-31T08:45:39;4.28;;;2.40;;
44036;SDS011;62488;-37.670;-63.532;2022-10-31T08:48:08;11.50;;;2.72;;
44036;SDS011;62488;-37.670;-63.532;2022-10-31T08:50:37;8.10;;;2.38;;
44036;SDS011;62488;-37.670;-63.532;2022-10-31T08:53:06;9.70;;;2.40;;
44036;SDS011;62488;-37.670;-63.532;2022-10-31T08:55:35;9.43;;;2.88;;
44036;SDS011;62488;-37.670;-63.532;2022-10-31T08:58:04;10.40;;;2.78;;
44036;SDS011;62488;-37.670;-63.532;2022-10-31T09:00:37;9.93;;;3.05;;
44036;SDS011;62488;-37.670;-63.532;2022-10-31T09:03:05;8.10;;;2.30;;
44036;SDS011;62488;-37.670;-63.532;2022-10-31T09:05:35;12.80;;;2.47;;
44036;SDS011;62488;-37.670;-63.532;2022-10-31T09:08:02;13.77;;;2.08;;
44036;SDS011;62488;-37.670;-63.532;2022-10-31T09:10:31;12.52;;;2.63;;
44036;SDS011;62488;-37.670;-63.532;2022-10-31T09:13:06;8.63;;;2.45;;
44036;SDS011;62488;-37.670;-63.532;2022-10-31T09:15:47;7.35;;;2.75;;
44036;SDS011;62488;-37.670;-63.532;2022-10-31T09:18:16;5.38;;;1.95;;
44036;SDS011;62488;-37.670;-63.532;2022-10-31T09:20:45;8.48;;;1.95;;
44036;SDS011;62488;-37.670;-63.532;2022-10-31T09:23:14;9.25;;;2.10;;
44036;SDS011;62488;-37.670;-63.532;2022-10-31T09:25:43;7.80;;;2.03;;
44036;SDS011;62488;-37.670;-63.532;2022-10-31T09:28:12;11.10;;;2.35;;
44036;SDS011;62488;-37.670;-63.532;2022-10-31T09:30:41;8.32;;;2.55;;
44036;SDS011;62488;-37.670;-63.532;2022-10-31T09:33:11;14.82;;;3.58;;
44036;SDS011;62488;-37.670;-63.532;2022-10-31T09:35:39;10.48;;;3.97;;
44036;SDS011;62488;-37.670;-63.532;2022-10-31T09:38:10;8.50;;;2.28;;
44036;SDS011;62488;-37.670;-63.532;2022-10-31T09:57:25;6.68;;;2.00;;
44036;SDS011;62488;-37.670;-63.532;2022-10-31T09:59:56;5.30;;;1.83;;
44036;SDS011;62488;-37.670;-63.532;2022-10-31T10:05:02;8.13;;;1.80;;
44036;SDS011;62488;-37.670;-63.532;2022-10-31T10:18:54;6.07;;;2.45;;
44036;SDS011;62488;-37.670;-63.532;2022-10-31T10:21:34;5.75;;;1.38;;
44036;SDS011;62488;-37.670;-63.532;2022-10-31T10:32:47;8.98;;;2.42;;
44036;SDS011;62488;-37.670;-63.532;2022-10-31T10:35:30;6.55;;;1.70;;
44036;SDS011;62488;-37.670;-63.532;2022-10-31T10:38:13;5.95;;;2.17;;
44036;SDS011;62488;-37.670;-63.532;2022-10-31T10:40:45;7.90;;;2.90;;
44036;SDS011;62488;-37.670;-63.532;2022-10-31T10:48:58;5.10;;;1.95;;
44036;SDS011;62488;-37.670;-63.532;2022-10-31T10:51:47;7.20;;;2.20;;
44036;SDS011;62488;-37.670;-63.532;2022-10-31T11:00:00;7.13;;;1.85;;
44036;SDS011;62488;-37.670;-63.532;2022-10-31T11:02:36;7.45;;;1.92;;
44036;SDS011;62488;-37.670;-63.532;2022-10-31T11:05:03;8.27;;;2.20;;
44036;SDS011;62488;-37.670;-63.532;2022-10-31T11:07:44;7.28;;;2.03;;
44036;SDS011;62488;-37.670;-63.532;2022-10-31T11:12:41;10.38;;;2.13;;
44036;SDS011;62488;-37.670;-63.532;2022-10-31T11:15:23;8.23;;;1.77;;
44036;SDS011;62488;-37.670;-63.532;2022-10-31T11:17:52;8.82;;;2.47;;
44036;SDS011;62488;-37.670;-63.532;2022-10-31T11:22:59;7.57;;;2.25;;
44036;SDS011;62488;-37.670;-63.532;2022-10-31T11:25:30;5.55;;;1.98;;
44036;SDS011;62488;-37.670;-63.532;2022-10-31T11:28:19;6.60;;;2.20;;
44036;SDS011;62488;-37.670;-63.532;2022-10-31T11:30:46;11.02;;;2.05;;
44036;SDS011;62488;-37.670;-63.532;2022-10-31T11:33:17;5.47;;;1.88;;
44036;SDS011;62488;-37.670;-63.532;2022-10-31T11:35:48;5.50;;;1.90;;
44036;SDS011;62488;-37.670;-63.532;2022-10-31T11:38:19;9.43;;;1.95;;
44036;SDS011;62488;-37.670;-63.532;2022-10-31T11:40:56;7.15;;;2.50;;
44036;SDS011;62488;-37.670;-63.532;2022-10-31T11:43:28;5.53;;;2.03;;
44036;SDS011;62488;-37.670;-63.532;2022-10-31T11:45:56;18.08;;;2.63;;
44036;SDS011;62488;-37.670;-63.532;2022-10-31T11:48:23;4.72;;;1.70;;
44036;SDS011;62488;-37.670;-63.532;2022-10-31T11:50:55;13.15;;;3.05;;
44036;SDS011;62488;-37.670;-63.532;2022-10-31T11:53:30;8.18;;;2.38;;
44036;SDS011;62488;-37.670;-63.532;2022-10-31T11:56:15;5.53;;;2.22;;
44036;SDS011;62488;-37.670;-63.532;2022-10-31T11:58:42;6.47;;;2.17;;
44036;SDS011;62488;-37.670;-63.532;2022-10-31T12:01:24;7.15;;;2.38;;
44036;SDS011;62488;-37.670;-63.532;2022-10-31T12:06:36;7.90;;;2.22;;
44036;SDS011;62488;-37.670;-63.532;2022-10-31T12:09:18;5.82;;;1.75;;
44036;SDS011;62488;-37.670;-63.532;2022-10-31T12:22:45;5.80;;;1.98;;
44036;SDS011;62488;-37.670;-63.532;2022-10-31T12:33:42;5.95;;;1.55;;
44036;SDS011;62488;-37.670;-63.532;2022-10-31T12:36:26;9.15;;;2.03;;
44036;SDS011;62488;-37.670;-63.532;2022-10-31T12:42:07;5.10;;;1.63;;
44036;SDS011;62488;-37.670;-63.532;2022-10-31T12:45:09;9.93;;;1.42;;
44036;SDS011;62488;-37.670;-63.532;2022-10-31T12:59:50;7.55;;;1.42;;
44036;SDS011;62488;-37.670;-63.532;2022-10-31T13:02:03;6.78;;;1.80;;
44036;SDS011;62488;-37.670;-63.532;2022-10-31T13:04:36;7.35;;;1.38;;
44036;SDS011;62488;-37.670;-63.532;2022-10-31T13:07:17;2.70;;;1.20;;
44036;SDS011;62488;-37.670;-63.532;2022-10-31T13:10:02;4.05;;;0.98;;
44036;SDS011;62488;-37.670;-63.532;2022-10-31T13:12:40;2.53;;;1.30;;
44036;SDS011;62488;-37.670;-63.532;2022-10-31T13:15:22;6.43;;;1.30;;
44036;SDS011;62488;-37.670;-63.532;2022-10-31T13:18:04;4.88;;;1.40;;
44036;SDS011;62488;-37.670;-63.532;2022-10-31T13:20:40;8.30;;;1.50;;
44036;SDS011;62488;-37.670;-63.532;2022-10-31T13:23:11;10.25;;;1.10;;
44036;SDS011;62488;-37.670;-63.532;2022-10-31T13:25:59;2.38;;;0.93;;
44036;SDS011;62488;-37.670;-63.532;2022-10-31T13:28:45;4.90;;;1.75;;
44036;SDS011;62488;-37.670;-63.532;2022-10-31T13:31:25;5.60;;;1.30;;
44036;SDS011;62488;-37.670;-63.532;2022-10-31T13:33:53;4.65;;;0.95;;
44036;SDS011;62488;-37.670;-63.532;2022-10-31T13:41:43;5.78;;;1.50;;
44036;SDS011;62488;-37.670;-63.532;2022-10-31T13:44:24;3.25;;;1.63;;
44036;SDS011;62488;-37.670;-63.532;2022-10-31T13:46:56;5.13;;;1.23;;
44036;SDS011;62488;-37.670;-63.532;2022-10-31T13:49:41;41.03;;;4.97;;
44036;SDS011;62488;-37.670;-63.532;2022-10-31T13:54:48;7.22;;;1.17;;
44036;SDS011;62488;-37.670;-63.532;2022-10-31T14:00:23;8.57;;;1.35;;
44036;SDS011;62488;-37.670;-63.532;2022-10-31T14:02:52;15.05;;;1.92;;
44036;SDS011;62488;-37.670;-63.532;2022-10-31T14:05:25;7.43;;;1.23;;
44036;SDS011;62488;-37.670;-63.532;2022-10-31T14:07:55;4.13;;;0.90;;
44036;SDS011;62488;-37.670;-63.532;2022-10-31T14:13:13;10.75;;;2.10;;
44036;SDS011;62488;-37.670;-63.532;2022-10-31T14:15:58;2.25;;;1.10;;
44036;SDS011;62488;-37.670;-63.532;2022-10-31T14:18:34;5.88;;;1.63;;
44036;SDS011;62488;-37.670;-63.532;2022-10-31T14:22:04;9.25;;;2.05;;
44036;SDS011;62488;-37.670;-63.532;2022-10-31T14:24:14;5.55;;;1.35;;
44036;SDS011;62488;-37.670;-63.532;2022-10-31T14:27:01;13.57;;;2.40;;
44036;SDS011;62488;-37.670;-63.532;2022-10-31T14:29:33;9.43;;;1.42;;
44036;SDS011;62488;-37.670;-63.532;2022-10-31T14:34:42;5.95;;;1.30;;
44036;SDS011;62488;-37.670;-63.532;2022-10-31T14:48:29;3.95;;;1.00;;
44036;SDS011;62488;-37.670;-63.532;2022-10-31T14:51:20;4.40;;;1.20;;
44036;SDS011;62488;-37.670;-63.532;2022-10-31T14:56:19;13.45;;;1.50;;
44036;SDS011;62488;-37.670;-63.532;2022-10-31T14:58:56;4.43;;;1.30;;
44036;SDS011;62488;-37.670;-63.532;2022-10-31T15:01:27;3.55;;;0.98;;
44036;SDS011;62488;-37.670;-63.532;2022-10-31T15:04:04;30.30;;;4.07;;
44036;SDS011;62488;-37.670;-63.532;2022-10-31T15:06:46;3.38;;;1.05;;
44036;SDS011;62488;-37.670;-63.532;2022-10-31T15:09:32;5.20;;;1.00;;
44036;SDS011;62488;-37.670;-63.532;2022-10-31T15:12:16;8.25;;;1.73;;
44036;SDS011;62488;-37.670;-63.532;2022-10-31T15:15:22;10.73;;;1.77;;
44036;SDS011;62488;-37.670;-63.532;2022-10-31T15:17:55;13.48;;;1.90;;
44036;SDS011;62488;-37.670;-63.532;2022-10-31T15:20:29;3.00;;;1.02;;
44036;SDS011;62488;-37.670;-63.532;2022-10-31T15:23:01;6.85;;;1.65;;
44036;SDS011;62488;-37.670;-63.532;2022-10-31T15:25:30;4.88;;;1.55;;
44036;SDS011;62488;-37.670;-63.532;2022-10-31T15:28:00;12.77;;;1.30;;
44036;SDS011;62488;-37.670;-63.532;2022-10-31T15:30:28;6.43;;;1.55;;
44036;SDS011;62488;-37.670;-63.532;2022-10-31T15:32:56;7.70;;;2.00;;
44036;SDS011;62488;-37.670;-63.532;2022-10-31T15:35:25;9.80;;;1.20;;
44036;SDS011;62488;-37.670;-63.532;2022-10-31T15:37:54;4.88;;;1.15;;
44036;SDS011;62488;-37.670;-63.532;2022-10-31T15:40:26;3.65;;;1.20;;
44036;SDS011;62488;-37.670;-63.532;2022-10-31T15:43:00;4.85;;;1.05;;
44036;SDS011;62488;-37.670;-63.532;2022-10-31T15:45:30;2.85;;;0.95;;
44036;SDS011;62488;-37.670;-63.532;2022-10-31T15:48:01;5.10;;;1.10;;
44036;SDS011;62488;-37.670;-63.532;2022-10-31T15:50:41;4.05;;;0.68;;
44036;SDS011;62488;-37.670;-63.532;2022-10-31T15:53:58;2.90;;;0.93;;
44036;SDS011;62488;-37.670;-63.532;2022-10-31T15:56:13;5.45;;;0.90;;
44036;SDS011;62488;-37.670;-63.532;2022-10-31T15:58:54;4.30;;;1.10;;
44036;SDS011;62488;-37.670;-63.532;2022-10-31T16:01:24;5.72;;;0.90;;
44036;SDS011;62488;-37.670;-63.532;2022-10-31T16:04:19;10.70;;;1.40;;
44036;SDS011;62488;-37.670;-63.532;2022-10-31T16:09:52;2.20;;;1.00;;
44036;SDS011;62488;-37.670;-63.532;2022-10-31T16:12:24;7.28;;;1.42;;
44036;SDS011;62488;-37.670;-63.532;2022-10-31T16:15:02;7.97;;;1.67;;
44036;SDS011;62488;-37.670;-63.532;2022-10-31T16:17:30;15.38;;;1.48;;
44036;SDS011;62488;-37.670;-63.532;2022-10-31T16:20:02;5.75;;;1.20;;
44036;SDS011;62488;-37.670;-63.532;2022-10-31T16:22:36;1.52;;;0.60;;
44036;SDS011;62488;-37.670;-63.532;2022-10-31T16:27:51;3.10;;;0.90;;
44036;SDS011;62488;-37.670;-63.532;2022-10-31T16:33:04;4.13;;;0.70;;
44036;SDS011;62488;-37.670;-63.532;2022-10-31T16:35:47;1.58;;;0.70;;
44036;SDS011;62488;-37.670;-63.532;2022-10-31T16:38:14;6.10;;;1.17;;
44036;SDS011;62488;-37.670;-63.532;2022-10-31T16:40:41;12.23;;;1.48;;
44036;SDS011;62488;-37.670;-63.532;2022-10-31T16:43:13;0.38;;;0.38;;
44036;SDS011;62488;-37.670;-63.532;2022-10-31T16:45:50;3.53;;;0.93;;
44036;SDS011;62488;-37.670;-63.532;2022-10-31T16:48:21;1.55;;;0.80;;
44036;SDS011;62488;-37.670;-63.532;2022-10-31T16:50:49;1.38;;;0.60;;
44036;SDS011;62488;-37.670;-63.532;2022-10-31T16:53:21;6.50;;;1.55;;
44036;SDS011;62488;-37.670;-63.532;2022-10-31T16:55:55;2.28;;;0.70;;
44036;SDS011;62488;-37.670;-63.532;2022-10-31T16:58:25;4.05;;;1.15;;
44036;SDS011;62488;-37.670;-63.532;2022-10-31T17:00:57;4.97;;;0.88;;
44036;SDS011;62488;-37.670;-63.532;2022-10-31T17:03:25;1.20;;;0.88;;
44036;SDS011;62488;-37.670;-63.532;2022-10-31T17:05:52;6.65;;;0.70;;
44036;SDS011;62488;-37.670;-63.532;2022-10-31T17:08:23;1.73;;;0.82;;
44036;SDS011;62488;-37.670;-63.532;2022-10-31T17:10:51;1.33;;;0.60;;
44036;SDS011;62488;-37.670;-63.532;2022-10-31T17:13:26;7.43;;;0.90;;
44036;SDS011;62488;-37.670;-63.532;2022-10-31T17:15:56;1.83;;;0.90;;
44036;SDS011;62488;-37.670;-63.532;2022-10-31T17:18:28;4.95;;;0.98;;
44036;SDS011;62488;-37.670;-63.532;2022-10-31T17:20:56;1.05;;;0.93;;
44036;SDS011;62488;-37.670;-63.532;2022-10-31T17:23:25;1.23;;;0.68;;
44036;SDS011;62488;-37.670;-63.532;2022-10-31T17:25:54;3.47;;;0.77;;
44036;SDS011;62488;-37.670;-63.532;2022-10-31T17:28:21;4.60;;;1.13;;
44036;SDS011;62488;-37.670;-63.532;2022-10-31T17:30:52;1.42;;;0.70;;